CheckWX is a tool to help pilots better visualize weather data.  It is not intended as a substitute for an official pre-flight weather briefing.

07:17:23 UTC

VTSS TAF
Hat Yai International Airport
Hat Yai, Thailand
TAF VTSS 200500Z 2006/2106 24008KT 9999 FEW020 SCT100 PROB30 TEMPO 2007/2013 24010G20KT 5000 TSRA FEW016CB SCT018 BKN100

Jun-20@
06:00 UTC

Jun-20 @ 06:00 UTC

Jun-21@
06:00 UTC

Jun-21 @ 06:00 UTC

TAF VTSS 200500Z 2006/2106 24008KT 9999 FEW020 SCT100
Wind
  • 240° at 8 KTS
Cloud Levels
  • Few at 2,000' AGL
  • Scattered at 10,000' AGL

Jun-20@
07:00 UTC

Jun-20 @ 07:00 UTC

Jun-20@
13:00 UTC

Jun-20 @ 13:00 UTC

PROB30 TEMPO 2007/2013 24010G20KT 5000 TSRA FEW016CB SCT018 BKN100

Temporary - 30% Likelihood

Temporary - 30% Likelihood during this time.

Wind
  • 240° at 10 KTS
  • {Gusting to 20 KTS
Conditions
Thunderstorm, Rain
Cloud Levels
  • Few at 1,600' AGL
  • Scattered at 1,800' AGL
  • Broken at 10,000' AGL